createdAt,value
2022-08-30T00:00:27.271Z,19.34
2022-08-30T00:02:54.139Z,19.48
2022-08-30T00:05:21.155Z,19.43
2022-08-30T00:07:48.237Z,19.41
2022-08-30T00:10:15.226Z,19.37
2022-08-30T00:12:43.231Z,19.33
2022-08-30T00:15:12.291Z,19.33
2022-08-30T00:17:39.684Z,19.25
2022-08-30T00:20:10.340Z,19.15
2022-08-30T00:22:37.430Z,19.27
2022-08-30T00:25:04.724Z,19.32
2022-08-30T00:27:31.441Z,19.32
2022-08-30T00:29:59.370Z,19.42
2022-08-30T00:32:26.824Z,19.40
2022-08-30T00:34:54.555Z,19.40
2022-08-30T00:37:21.959Z,19.30
2022-08-30T00:39:48.887Z,19.44
2022-08-30T00:42:16.823Z,19.37
2022-08-30T00:44:43.805Z,19.34
2022-08-30T00:47:11.888Z,19.37
2022-08-30T00:49:41.480Z,19.53
2022-08-30T00:52:08.910Z,19.54
2022-08-30T00:54:37.290Z,19.54
2022-08-30T00:57:05.091Z,19.48
2022-08-30T00:59:32.283Z,19.46
2022-08-30T01:01:59.030Z,19.48
2022-08-30T01:04:29.068Z,19.48
2022-08-30T01:06:56.544Z,19.47
2022-08-30T01:09:23.619Z,19.36
2022-08-30T01:11:50.291Z,19.36
2022-08-30T01:14:17.491Z,19.38
2022-08-30T01:16:46.339Z,19.32
2022-08-30T01:19:31.571Z,19.33
2022-08-30T01:22:04.086Z,19.35
2022-08-30T01:24:33.202Z,19.36
2022-08-30T01:26:59.819Z,19.41
2022-08-30T01:29:27.896Z,19.42
2022-08-30T01:31:54.564Z,19.41
2022-08-30T01:34:21.225Z,19.38
2022-08-30T01:36:48.574Z,19.33
2022-08-30T01:39:17.217Z,19.33
2022-08-30T01:41:45.630Z,19.31
2022-08-30T01:44:13.527Z,19.28
2022-08-30T01:46:43.319Z,19.35
2022-08-30T01:49:13.618Z,19.24
2022-08-30T01:51:41.518Z,19.23
2022-08-30T01:54:08.217Z,19.21
2022-08-30T01:56:35.130Z,19.23
2022-08-30T01:59:03.484Z,19.24
2022-08-30T02:01:33.283Z,19.29
2022-08-30T02:04:00.419Z,19.22
2022-08-30T02:06:27.287Z,19.22
2022-08-30T02:08:53.944Z,19.14
2022-08-30T02:11:20.602Z,19.15
2022-08-30T02:13:47.313Z,19.05
2022-08-30T02:16:17.543Z,18.98
2022-08-30T02:18:44.825Z,18.99
2022-08-30T02:21:12.903Z,18.86
2022-08-30T02:23:39.849Z,18.84
2022-08-30T02:26:08.498Z,18.86
2022-08-30T02:28:35.675Z,18.88
2022-08-30T02:31:09.868Z,19.02
2022-08-30T02:33:40.489Z,19.07
2022-08-30T02:36:08.337Z,19.03
2022-08-30T02:38:35.068Z,18.91
2022-08-30T02:41:01.705Z,18.88
2022-08-30T02:43:28.459Z,18.89
2022-08-30T02:45:55.241Z,18.89
2022-08-30T02:48:22.346Z,18.82
2022-08-30T02:50:52.794Z,18.86
2022-08-30T02:53:20.793Z,18.89
2022-08-30T02:55:48.143Z,18.92
2022-08-30T02:58:15.178Z,18.87
2022-08-30T03:00:42.611Z,18.88
2022-08-30T03:03:09.783Z,18.88
2022-08-30T03:05:39.774Z,18.79
2022-08-30T03:08:08.486Z,18.76
2022-08-30T03:10:35.977Z,18.67
2022-08-30T03:13:02.655Z,18.64
2022-08-30T03:15:29.336Z,18.67
2022-08-30T03:17:58.824Z,18.63
2022-08-30T03:20:25.826Z,18.62
2022-08-30T03:22:52.807Z,18.53
2022-08-30T03:25:23.155Z,18.40
2022-08-30T03:27:50.673Z,18.46
2022-08-30T03:30:18.602Z,18.45
2022-08-30T03:32:45.320Z,18.46
2022-08-30T03:35:13.121Z,18.43
2022-08-30T03:37:40.525Z,18.43
2022-08-30T03:40:09.085Z,18.45
2022-08-30T03:42:38.511Z,18.50
2022-08-30T03:45:09.180Z,18.44
2022-08-30T03:47:36.461Z,18.38
2022-08-30T03:50:05.285Z,18.33
2022-08-30T03:52:32.089Z,18.37
2022-08-30T03:54:58.760Z,18.33
2022-08-30T03:57:25.361Z,18.37
2022-08-30T03:59:53.377Z,18.44
2022-08-30T04:02:20.254Z,18.41
2022-08-30T04:04:47.254Z,18.42
2022-08-30T04:07:13.818Z,18.38
2022-08-30T04:09:40.698Z,18.43
2022-08-30T04:12:07.665Z,18.31
2022-08-30T04:14:34.259Z,18.33
2022-08-30T04:17:02.263Z,18.32
2022-08-30T04:19:29.055Z,18.19
2022-08-30T04:21:55.657Z,18.08
2022-08-30T04:24:22.278Z,18.14
2022-08-30T04:26:49.026Z,18.16
2022-08-30T04:29:15.687Z,18.13
2022-08-30T04:31:42.778Z,18.06
2022-08-30T04:34:11.731Z,18.07
2022-08-30T04:36:38.614Z,17.96
2022-08-30T04:39:06.672Z,18.00
2022-08-30T04:41:34.023Z,17.98
2022-08-30T04:44:02.121Z,17.96
2022-08-30T04:46:29.060Z,17.91
2022-08-30T04:48:55.957Z,17.98
2022-08-30T04:51:24.025Z,17.93
2022-08-30T04:53:51.230Z,17.99
2022-08-30T04:56:22.137Z,17.94
2022-08-30T04:58:52.547Z,18.03
2022-08-30T05:01:23.958Z,18.06
2022-08-30T05:03:51.739Z,17.98
2022-08-30T05:06:19.128Z,18.00
2022-08-30T05:08:47.282Z,18.05
2022-08-30T05:11:15.511Z,18.04
2022-08-30T05:13:42.755Z,18.03
2022-08-30T05:16:09.462Z,18.11
2022-08-30T05:18:37.026Z,18.12
2022-08-30T05:21:06.260Z,18.16
2022-08-30T05:23:32.910Z,18.12
2022-08-30T05:26:04.819Z,18.15
2022-08-30T05:28:31.446Z,18.15
2022-08-30T05:30:58.252Z,18.15
2022-08-30T05:33:25.147Z,18.02
2022-08-30T05:35:51.857Z,17.92
2022-08-30T05:38:18.835Z,18.07
2022-08-30T05:40:45.713Z,17.98
2022-08-30T05:43:14.497Z,17.96
2022-08-30T05:45:41.152Z,18.01
2022-08-30T05:48:07.820Z,17.96
2022-08-30T05:50:38.157Z,17.99
2022-08-30T05:53:06.343Z,18.15
2022-08-30T05:55:32.993Z,18.14
2022-08-30T05:57:59.668Z,18.16
2022-08-30T06:00:31.162Z,18.12
2022-08-30T06:02:57.958Z,18.18
2022-08-30T06:05:24.650Z,18.15
2022-08-30T06:07:51.245Z,18.27
2022-08-30T06:10:17.866Z,18.33
2022-08-30T06:12:44.524Z,18.26
2022-08-30T06:15:11.894Z,18.19
2022-08-30T06:17:39.899Z,18.20
2022-08-30T06:20:07.854Z,18.25
2022-08-30T06:22:34.495Z,18.29
2022-08-30T06:25:01.344Z,18.34
2022-08-30T06:27:28.067Z,18.46
2022-08-30T06:29:54.828Z,18.51
2022-08-30T06:32:21.609Z,18.64
2022-08-30T06:34:49.643Z,18.67
2022-08-30T06:37:20.945Z,18.66
2022-08-30T06:39:57.662Z,18.68
2022-08-30T06:42:24.705Z,18.72
2022-08-30T06:44:53.442Z,18.79
2022-08-30T06:47:20.070Z,18.87
2022-08-30T06:49:46.781Z,18.89
2022-08-30T06:52:14.846Z,18.93
2022-08-30T06:54:41.588Z,19.04
2022-08-30T06:57:08.221Z,19.10
2022-08-30T06:59:34.906Z,19.14
2022-08-30T07:02:01.621Z,19.15
2022-08-30T07:04:28.357Z,19.16
2022-08-30T07:06:55.142Z,19.17
2022-08-30T07:09:23.544Z,19.31
2022-08-30T07:11:51.836Z,19.37
2022-08-30T07:14:19.612Z,19.41
2022-08-30T07:16:47.053Z,19.46
2022-08-30T07:19:21.119Z,19.48
2022-08-30T07:21:48.954Z,19.51
2022-08-30T07:24:16.804Z,19.59
2022-08-30T07:26:47.397Z,19.71
2022-08-30T07:29:14.068Z,19.90
2022-08-30T07:31:40.792Z,20.05
2022-08-30T07:34:08.625Z,20.24
2022-08-30T07:36:35.354Z,20.36
2022-08-30T07:39:02.545Z,20.44
2022-08-30T07:41:32.357Z,20.54
2022-08-30T07:44:00.461Z,20.60
2022-08-30T07:46:59.275Z,20.69
2022-08-30T07:49:29.221Z,20.80
2022-08-30T07:51:56.519Z,20.91
2022-08-30T07:54:23.141Z,21.07
2022-08-30T07:56:49.770Z,21.24
2022-08-30T07:59:17.885Z,21.34
2022-08-30T08:01:44.533Z,21.44
2022-08-30T08:04:11.183Z,21.55
2022-08-30T08:06:40.124Z,21.59
2022-08-30T08:09:06.770Z,21.70
2022-08-30T08:11:34.846Z,21.75
2022-08-30T08:14:02.182Z,21.91
2022-08-30T08:16:33.053Z,22.14
2022-08-30T08:18:59.889Z,22.32
2022-08-30T08:21:27.921Z,22.38
2022-08-30T08:23:55.002Z,22.39
2022-08-30T08:26:22.090Z,22.57
2022-08-30T08:28:48.780Z,22.89
2022-08-30T08:31:16.600Z,23.19
2022-08-30T08:33:45.211Z,24.02
2022-08-30T08:36:12.015Z,27.18
2022-08-30T08:38:38.814Z,28.84
2022-08-30T08:41:10.849Z,30.14
2022-08-30T08:43:38.107Z,30.51
2022-08-30T08:46:13.321Z,30.23
2022-08-30T08:48:59.108Z,30.23
2022-08-30T08:51:32.447Z,30.35
2022-08-30T08:54:04.697Z,30.56
2022-08-30T08:56:32.661Z,30.88
2022-08-30T08:58:59.428Z,31.02
2022-08-30T09:01:29.302Z,31.27
2022-08-30T09:03:57.960Z,31.29
2022-08-30T09:06:45.498Z,31.87
2022-08-30T09:09:12.527Z,32.20
2022-08-30T09:11:41.701Z,32.45
2022-08-30T09:14:14.514Z,32.62
2022-08-30T09:16:56.782Z,32.89
2022-08-30T09:19:45.052Z,33.43
2022-08-30T09:22:19.061Z,33.12
2022-08-30T09:24:48.203Z,32.86
2022-08-30T09:27:17.796Z,33.23
2022-08-30T09:29:54.594Z,33.02
2022-08-30T09:32:31.415Z,33.34
2022-08-30T09:34:58.838Z,33.12
2022-08-30T09:37:31.316Z,33.58
2022-08-30T09:39:59.135Z,33.96
2022-08-30T09:42:28.104Z,34.33
2022-08-30T09:44:55.962Z,34.84
2022-08-30T09:47:28.266Z,35.03
2022-08-30T09:50:05.725Z,35.66
2022-08-30T09:52:43.430Z,35.87
2022-08-30T09:55:21.525Z,36.28
2022-08-30T09:57:57.934Z,37.01
2022-08-30T10:00:26.579Z,36.57
2022-08-30T10:03:26.147Z,36.39
2022-08-30T10:06:09.007Z,36.52
2022-08-30T10:08:48.052Z,36.76
2022-08-30T10:11:23.812Z,37.04
2022-08-30T10:14:06.834Z,37.36
2022-08-30T10:16:45.321Z,37.46
2022-08-30T10:19:37.794Z,37.73
2022-08-30T10:22:11.105Z,37.22
2022-08-30T10:24:44.529Z,37.55
2022-08-30T10:27:17.818Z,37.52
2022-08-30T10:29:49.250Z,37.24
2022-08-30T10:32:24.256Z,37.05
2022-08-30T10:34:56.134Z,36.74
2022-08-30T10:37:26.125Z,36.39
2022-08-30T10:39:59.307Z,36.55
2022-08-30T10:42:30.465Z,36.50
2022-08-30T10:45:01.074Z,38.49
2022-08-30T10:47:36.219Z,36.91
2022-08-30T10:50:11.834Z,36.47
2022-08-30T10:52:44.258Z,36.22
2022-08-30T10:55:19.066Z,36.67
2022-08-30T10:57:46.155Z,36.60
2022-08-30T11:00:15.766Z,36.55
2022-08-30T11:03:16.628Z,36.41
2022-08-30T11:06:22.734Z,35.37
2022-08-30T11:09:25.028Z,35.42
2022-08-30T11:12:15.851Z,35.60
2022-08-30T11:14:46.163Z,35.35
2022-08-30T11:17:26.319Z,36.34
2022-08-30T11:19:56.087Z,36.56
2022-08-30T11:22:26.747Z,36.22
2022-08-30T11:25:08.629Z,36.19
2022-08-30T11:27:47.120Z,36.05
2022-08-30T11:30:50.116Z,36.98
2022-08-30T11:33:46.064Z,37.59
2022-08-30T11:37:10.083Z,38.04
2022-08-30T11:40:01.912Z,39.00
2022-08-30T11:42:34.847Z,38.31
2022-08-30T11:45:20.243Z,40.44
2022-08-30T11:47:49.838Z,38.11
2022-08-30T11:50:21.925Z,37.43
2022-08-30T11:52:59.580Z,37.31
2022-08-30T11:55:43.262Z,37.33
2022-08-30T11:58:32.139Z,37.06
2022-08-30T12:01:42.084Z,36.56
2022-08-30T12:04:15.331Z,35.13
2022-08-30T12:06:51.826Z,34.72
2022-08-30T12:10:01.279Z,34.43
2022-08-30T12:12:50.841Z,34.04
2022-08-30T12:15:47.061Z,33.61
2022-08-30T12:18:18.091Z,32.86
2022-08-30T12:20:47.869Z,33.05
2022-08-30T12:23:20.399Z,33.10
2022-08-30T12:25:47.675Z,33.63
2022-08-30T12:28:22.091Z,34.21
2022-08-30T12:30:49.760Z,34.07
2022-08-30T12:33:29.052Z,34.08
2022-08-30T12:35:55.976Z,33.56
2022-08-30T12:38:27.692Z,33.25
2022-08-30T12:40:57.213Z,32.77
2022-08-30T12:43:28.426Z,32.66
2022-08-30T12:46:11.517Z,32.82
2022-08-30T12:48:39.975Z,34.35
2022-08-30T12:51:07.411Z,33.33
2022-08-30T12:53:36.889Z,33.25
2022-08-30T12:56:06.349Z,33.52
2022-08-30T12:58:41.062Z,34.07
2022-08-30T13:01:15.504Z,34.90
2022-08-30T13:03:42.146Z,34.30
2022-08-30T13:06:09.039Z,33.57
2022-08-30T13:08:48.269Z,33.50
2022-08-30T13:11:29.307Z,34.17
2022-08-30T13:14:17.669Z,34.90
2022-08-30T13:16:47.942Z,32.62
2022-08-30T13:19:27.650Z,31.77
2022-08-30T13:21:56.122Z,30.84
2022-08-30T13:24:25.562Z,31.37
2022-08-30T13:26:53.843Z,31.66
2022-08-30T13:29:23.121Z,31.45
2022-08-30T13:31:51.369Z,31.05
2022-08-30T13:34:18.279Z,30.64
2022-08-30T13:36:49.706Z,30.18
2022-08-30T13:39:16.865Z,29.88
2022-08-30T13:41:48.315Z,29.72
2022-08-30T13:44:15.930Z,29.48
2022-08-30T13:46:52.274Z,29.35
2022-08-30T13:52:21.051Z,29.65
2022-08-30T13:54:49.858Z,31.00
2022-08-30T13:57:53.478Z,31.95
2022-08-30T14:00:07.106Z,32.32
2022-08-30T14:02:46.340Z,32.02
2022-08-30T14:05:47.094Z,31.84
2022-08-30T14:08:03.501Z,31.67
2022-08-30T14:10:32.952Z,31.74
2022-08-30T14:13:08.503Z,31.79
2022-08-30T14:15:38.811Z,31.70
2022-08-30T14:18:06.425Z,31.55
2022-08-30T14:20:35.054Z,31.36
2022-08-30T14:23:07.455Z,31.24
2022-08-30T14:25:37.089Z,31.13
2022-08-30T14:28:04.349Z,30.93
2022-08-30T14:30:31.494Z,30.97
2022-08-30T14:32:59.932Z,30.88
2022-08-30T14:35:26.560Z,30.52
2022-08-30T14:37:55.551Z,30.27
2022-08-30T14:40:22.400Z,30.09
2022-08-30T14:42:49.122Z,30.03
2022-08-30T14:45:16.134Z,29.96
2022-08-30T14:47:43.495Z,29.93
2022-08-30T14:50:10.349Z,29.90
2022-08-30T14:52:37.030Z,29.69
2022-08-30T14:55:08.813Z,29.55
2022-08-30T14:57:36.193Z,29.32
2022-08-30T15:00:07.438Z,29.19
2022-08-30T15:02:34.148Z,29.42
2022-08-30T15:05:00.807Z,29.65
2022-08-30T15:07:27.657Z,29.60
2022-08-30T15:09:54.309Z,29.71
2022-08-30T15:12:22.279Z,29.65
2022-08-30T15:14:49.109Z,29.72
2022-08-30T15:17:15.742Z,29.64
2022-08-30T15:19:43.246Z,29.53
2022-08-30T15:22:09.959Z,29.31
2022-08-30T15:24:36.789Z,28.97
2022-08-30T15:27:04.490Z,28.82
2022-08-30T15:29:34.150Z,28.66
2022-08-30T15:32:02.226Z,28.69
2022-08-30T15:34:30.031Z,28.71
2022-08-30T15:36:57.664Z,28.82
2022-08-30T15:39:24.877Z,28.75
2022-08-30T15:41:55.758Z,28.65
2022-08-30T15:44:25.501Z,28.64
2022-08-30T15:46:53.729Z,28.59
2022-08-30T15:49:24.281Z,28.55
2022-08-30T15:51:54.409Z,28.42
2022-08-30T15:54:23.026Z,28.32
2022-08-30T15:56:49.760Z,28.27
2022-08-30T15:59:16.610Z,28.16
2022-08-30T16:01:43.920Z,28.15
2022-08-30T16:04:12.204Z,28.15
2022-08-30T16:06:39.916Z,28.07
2022-08-30T16:09:29.974Z,28.02
2022-08-30T16:11:59.249Z,27.77
2022-08-30T16:14:25.901Z,27.67
2022-08-30T16:16:52.524Z,27.41
2022-08-30T16:19:19.174Z,27.32
2022-08-30T16:21:45.851Z,27.21
2022-08-30T16:24:13.679Z,27.24
2022-08-30T16:26:42.877Z,27.11
2022-08-30T16:29:11.068Z,27.05
2022-08-30T16:31:37.860Z,27.09
2022-08-30T16:34:05.386Z,27.02
2022-08-30T16:36:32.873Z,27.00
2022-08-30T16:39:00.378Z,27.01
2022-08-30T16:41:27.401Z,26.91
2022-08-30T16:43:55.806Z,26.93
2022-08-30T16:46:27.017Z,26.88
2022-08-30T16:48:56.184Z,26.93
2022-08-30T16:51:24.914Z,26.89
2022-08-30T16:53:53.871Z,26.85
2022-08-30T16:56:22.578Z,26.78
2022-08-30T16:58:57.779Z,26.62
2022-08-30T17:01:30.863Z,26.67
2022-08-30T17:03:58.046Z,26.56
2022-08-30T17:06:25.040Z,26.53
2022-08-30T17:08:54.065Z,26.52
2022-08-30T17:11:23.238Z,26.55
2022-08-30T17:13:50.825Z,26.57
2022-08-30T17:16:27.262Z,26.45
2022-08-30T17:18:59.750Z,26.41
2022-08-30T17:21:28.512Z,26.29
2022-08-30T17:24:01.473Z,26.27
2022-08-30T17:26:29.450Z,26.13
2022-08-30T17:28:56.188Z,26.08
2022-08-30T17:31:24.948Z,25.98
2022-08-30T17:33:55.114Z,25.93
2022-08-30T17:36:25.030Z,25.87
2022-08-30T17:38:51.710Z,25.70
2022-08-30T17:41:21.645Z,25.58
2022-08-30T17:43:48.826Z,25.49
2022-08-30T17:46:16.156Z,25.52
2022-08-30T17:48:43.502Z,25.38
2022-08-30T17:51:10.241Z,25.39
2022-08-30T17:53:38.346Z,25.33
2022-08-30T17:56:05.870Z,25.22
2022-08-30T17:58:32.582Z,25.19
2022-08-30T18:01:05.925Z,25.13
2022-08-30T18:03:39.015Z,24.98
2022-08-30T18:06:07.160Z,24.99
2022-08-30T18:08:34.776Z,24.87
2022-08-30T18:11:06.047Z,24.81
2022-08-30T18:13:33.453Z,24.59
2022-08-30T18:16:01.956Z,24.65
2022-08-30T18:18:28.789Z,24.59
2022-08-30T18:20:55.909Z,24.53
2022-08-30T18:23:24.141Z,24.55
2022-08-30T18:25:56.160Z,24.38
2022-08-30T18:28:24.335Z,24.36
2022-08-30T18:30:52.962Z,24.28
2022-08-30T18:33:20.425Z,24.32
2022-08-30T18:35:48.645Z,24.34
2022-08-30T18:38:15.414Z,24.28
2022-08-30T18:40:42.376Z,24.22
2022-08-30T18:43:10.643Z,24.10
2022-08-30T18:45:43.718Z,24.12
2022-08-30T18:48:10.956Z,24.11
2022-08-30T18:50:41.731Z,23.93
2022-08-30T18:53:08.891Z,23.86
2022-08-30T18:55:36.252Z,23.92
2022-08-30T18:58:03.418Z,23.75
2022-08-30T19:00:30.959Z,23.71
2022-08-30T19:02:58.933Z,23.78
2022-08-30T19:05:25.990Z,23.80
2022-08-30T19:07:55.222Z,23.74
2022-08-30T19:10:26.018Z,23.73
2022-08-30T19:12:53.249Z,23.67
2022-08-30T19:15:20.051Z,23.51
2022-08-30T19:17:47.320Z,23.54
2022-08-30T19:20:18.014Z,23.51
2022-08-30T19:23:08.938Z,23.50
2022-08-30T19:25:31.824Z,23.31
2022-08-30T19:27:58.417Z,23.34
2022-08-30T19:30:29.879Z,23.32
2022-08-30T19:32:56.962Z,23.30
2022-08-30T19:35:26.183Z,23.31
2022-08-30T19:37:52.967Z,23.27
2022-08-30T19:40:21.068Z,23.25
2022-08-30T19:42:49.364Z,23.28
2022-08-30T19:45:17.802Z,23.19
2022-08-30T19:47:45.179Z,23.17
2022-08-30T19:50:13.531Z,23.17
2022-08-30T19:52:41.706Z,23.14
2022-08-30T19:55:09.988Z,23.03
2022-08-30T19:57:36.969Z,22.99
2022-08-30T20:00:06.592Z,23.00
2022-08-30T20:02:38.065Z,23.06
2022-08-30T20:05:06.169Z,23.02
2022-08-30T20:07:33.722Z,23.07
2022-08-30T20:10:09.697Z,23.00
2022-08-30T20:12:37.220Z,22.95
2022-08-30T20:15:06.943Z,22.93
2022-08-30T20:17:47.797Z,22.89
2022-08-30T20:20:21.714Z,22.87
2022-08-30T20:22:51.018Z,22.81
2022-08-30T20:25:22.566Z,22.66
2022-08-30T20:27:49.253Z,22.66
2022-08-30T20:30:18.096Z,22.54
2022-08-30T20:32:45.338Z,22.48
2022-08-30T20:35:14.163Z,22.50
2022-08-30T20:37:41.698Z,22.45
2022-08-30T20:40:12.315Z,22.32
2022-08-30T20:42:43.621Z,22.38
2022-08-30T20:45:12.666Z,22.34
2022-08-30T20:47:39.411Z,22.31
2022-08-30T20:50:08.102Z,22.25
2022-08-30T20:52:40.749Z,22.26
2022-08-30T20:55:09.394Z,22.12
2022-08-30T20:57:36.366Z,22.08
2022-08-30T21:00:05.705Z,22.09
2022-08-30T21:02:34.347Z,22.02
2022-08-30T21:05:02.153Z,21.92
2022-08-30T21:07:28.892Z,22.00
2022-08-30T21:09:55.547Z,21.94
2022-08-30T21:12:22.297Z,21.93
2022-08-30T21:14:48.995Z,21.78
2022-08-30T21:17:17.610Z,21.70
2022-08-30T21:19:44.859Z,21.66
2022-08-30T21:22:11.979Z,21.53
2022-08-30T21:24:38.671Z,21.57
2022-08-30T21:27:05.456Z,21.54
2022-08-30T21:29:33.286Z,21.49
2022-08-30T21:31:59.923Z,21.47
2022-08-30T21:34:27.945Z,21.52
2022-08-30T21:36:54.591Z,21.39
2022-08-30T21:39:23.186Z,21.45
2022-08-30T21:41:52.338Z,21.35
2022-08-30T21:44:21.726Z,21.39
2022-08-30T21:46:49.882Z,21.43
2022-08-30T21:49:18.874Z,21.36
2022-08-30T21:51:49.467Z,21.37
2022-08-30T21:54:17.266Z,21.41
2022-08-30T21:56:46.357Z,21.45
2022-08-30T21:59:14.024Z,21.34
2022-08-30T22:01:42.372Z,21.30
2022-08-30T22:04:10.099Z,21.38
2022-08-30T22:06:38.797Z,21.36
2022-08-30T22:09:08.756Z,21.26
2022-08-30T22:11:37.278Z,21.08
2022-08-30T22:14:05.028Z,21.07
2022-08-30T22:16:31.810Z,21.15
2022-08-30T22:18:58.847Z,21.14
2022-08-30T22:21:28.403Z,21.08
2022-08-30T22:23:55.222Z,20.95
2022-08-30T22:26:23.862Z,21.08
2022-08-30T22:28:52.068Z,20.99
2022-08-30T22:31:20.690Z,21.06
2022-08-30T22:33:47.801Z,20.95
2022-08-30T22:36:18.094Z,21.09
2022-08-30T22:38:44.925Z,20.96
2022-08-30T22:41:15.018Z,20.98
2022-08-30T22:43:43.993Z,20.93
2022-08-30T22:46:11.749Z,20.96
2022-08-30T22:48:40.678Z,20.95
2022-08-30T22:51:07.978Z,21.02
2022-08-30T22:53:34.979Z,20.99
2022-08-30T22:56:08.475Z,21.03
2022-08-30T22:58:35.207Z,21.07
2022-08-30T23:01:03.758Z,21.12
2022-08-30T23:03:30.450Z,21.09
2022-08-30T23:05:57.334Z,20.96
2022-08-30T23:08:24.018Z,20.97
2022-08-30T23:10:50.661Z,20.93
2022-08-30T23:13:17.394Z,20.92
2022-08-30T23:15:44.217Z,20.92
2022-08-30T23:18:12.261Z,20.93
2022-08-30T23:20:41.201Z,20.92
2022-08-30T23:23:07.895Z,20.95
2022-08-30T23:25:41.304Z,20.88
2022-08-30T23:28:08.538Z,20.84
2022-08-30T23:30:35.247Z,20.70
2022-08-30T23:33:01.876Z,20.67
2022-08-30T23:35:29.986Z,20.69
2022-08-30T23:37:57.289Z,20.66
2022-08-30T23:40:24.152Z,20.58
2022-08-30T23:42:50.841Z,20.58
2022-08-30T23:45:17.713Z,20.63
2022-08-30T23:47:44.409Z,20.60
2022-08-30T23:50:11.045Z,20.55
2022-08-30T23:52:39.914Z,20.52
2022-08-30T23:55:07.529Z,20.50
2022-08-30T23:57:34.332Z,20.44
